Time;durP1;ratioP1;P1;durP2;ratioP2;P2;SDS_P1;SDS_P2;PMS_P1;PMS_P2;Temp;Humidity;BMP_temperature;BMP_pressure;BME280_temperature;BME280_humidity;BME280_pressure;Samples;Min_cycle;Max_cycle;Signal;HPM_P1;HPM_P2
2024/01/01 00:00:12;;;;;;;32.50;20.70;;;9.60;99.90;;;;;;5036744;28;20017;-82
2024/01/01 00:02:38;;;;;;;28.02;19.73;;;9.60;99.90;;;;;;5055578;28;20047;-82
2024/01/01 00:05:04;;;;;;;27.55;19.13;;;9.60;99.90;;;;;;5058097;28;20013;-80
2024/01/01 00:07:29;;;;;;;30.17;18.48;;;9.60;99.90;;;;;;5060968;28;20017;-82
2024/01/01 00:09:55;;;;;;;26.48;16.45;;;9.70;99.90;;;;;;5050357;28;20029;-82
2024/01/01 00:12:21;;;;;;;21.38;12.60;;;9.60;99.90;;;;;;5020488;28;20033;-82
2024/01/01 00:14:47;;;;;;;21.95;11.98;;;9.60;99.90;;;;;;5036562;28;20025;-82
2024/01/01 00:17:13;;;;;;;17.05;9.90;;;9.60;99.90;;;;;;5036649;28;20086;-82
2024/01/01 00:19:39;;;;;;;17.27;9.88;;;9.60;99.90;;;;;;5019644;28;20075;-83
2024/01/01 00:22:05;;;;;;;18.02;9.60;;;9.60;99.90;;;;;;5019848;28;20033;-83
2024/01/01 00:24:31;;;;;;;15.35;8.05;;;9.60;99.90;;;;;;5035823;28;20036;-82
2024/01/01 00:26:56;;;;;;;18.77;9.15;;;9.60;99.90;;;;;;5019666;28;20037;-82
2024/01/01 00:29:24;;;;;;;16.35;8.82;;;9.60;99.90;;;;;;5036233;28;20037;-82
2024/01/01 00:31:50;;;;;;;17.08;9.48;;;9.60;99.90;;;;;;5019854;28;20474;-82
2024/01/01 00:34:16;;;;;;;12.02;7.25;;;9.60;99.90;;;;;;5036163;28;20025;-83
2024/01/01 00:36:42;;;;;;;11.55;6.38;;;9.60;99.90;;;;;;5035988;28;20105;-83
2024/01/01 00:39:08;;;;;;;11.70;6.15;;;9.50;99.90;;;;;;5019614;28;20477;-83
2024/01/01 00:41:36;;;;;;;11.27;6.45;;;9.50;99.90;;;;;;5035446;28;20040;-81
2024/01/01 00:44:05;;;;;;;11.65;5.55;;;9.50;99.90;;;;;;5036039;28;20033;-82
2024/01/01 00:46:31;;;;;;;9.48;3.92;;;9.50;99.90;;;;;;5053365;28;20029;-82
2024/01/01 00:48:57;;;;;;;9.82;3.58;;;9.50;99.90;;;;;;5053458;28;20032;-82
2024/01/01 00:51:23;;;;;;;8.18;3.67;;;9.40;99.90;;;;;;5053806;28;20033;-82
2024/01/01 00:53:48;;;;;;;7.22;3.30;;;9.40;99.90;;;;;;5036203;28;20032;-82
2024/01/01 00:56:14;;;;;;;5.75;2.97;;;9.40;99.90;;;;;;5053220;28;20064;-83
2024/01/01 00:58:40;;;;;;;5.75;2.20;;;9.40;99.90;;;;;;5035761;28;20067;-82
2024/01/01 01:01:07;;;;;;;5.60;1.98;;;9.40;99.90;;;;;;5035645;28;20488;-83
2024/01/01 01:03:34;;;;;;;4.15;1.83;;;9.30;99.90;;;;;;5068889;28;20033;-82
2024/01/01 01:06:00;;;;;;;3.97;1.40;;;9.30;99.90;;;;;;5068895;28;20045;-82
2024/01/01 01:08:25;;;;;;;2.22;1.30;;;9.30;99.90;;;;;;5052964;28;20083;-82
2024/01/01 01:10:51;;;;;;;4.43;1.73;;;9.30;99.90;;;;;;5019138;28;20099;-83
2024/01/01 01:13:17;;;;;;;4.28;1.83;;;9.30;99.90;;;;;;5038797;28;20033;-82
2024/01/01 01:15:43;;;;;;;4.30;1.92;;;9.20;99.90;;;;;;5039771;28;20051;-82
2024/01/01 01:18:08;;;;;;;2.38;1.30;;;9.20;99.90;;;;;;5039242;28;20040;-82
2024/01/01 01:20:34;;;;;;;2.30;1.08;;;9.20;99.90;;;;;;5039507;28;20079;-82
2024/01/01 01:23:00;;;;;;;3.47;1.38;;;9.20;99.90;;;;;;5039504;28;20021;-83
2024/01/01 01:25:25;;;;;;;2.88;1.48;;;9.10;99.90;;;;;;5056492;28;20227;-82
2024/01/01 01:27:51;;;;;;;3.88;1.58;;;9.10;99.90;;;;;;5039550;28;20052;-82
2024/01/01 01:30:17;;;;;;;3.45;1.60;;;9.00;99.90;;;;;;5048535;28;20472;-82
2024/01/01 01:32:42;;;;;;;3.83;1.42;;;9.00;99.90;;;;;;5064165;28;20020;-82
2024/01/01 01:35:08;;;;;;;4.43;1.55;;;9.00;99.90;;;;;;5064082;28;20033;-82
2024/01/01 01:37:34;;;;;;;3.55;1.50;;;8.90;99.90;;;;;;5063796;28;20021;-81
2024/01/01 01:40:00;;;;;;;3.00;1.20;;;8.80;99.90;;;;;;5067171;28;20056;-82
2024/01/01 01:42:25;;;;;;;3.17;1.67;;;8.80;99.90;;;;;;5039861;28;20099;-82
2024/01/01 01:44:51;;;;;;;4.88;1.77;;;8.80;99.90;;;;;;5039551;28;20116;-82
2024/01/01 01:47:17;;;;;;;2.72;1.60;;;8.80;99.90;;;;;;5057161;28;20400;-82
2024/01/01 01:49:43;;;;;;;3.63;1.40;;;8.70;99.90;;;;;;5038949;28;20103;-83
2024/01/01 01:52:10;;;;;;;3.40;1.50;;;8.70;99.90;;;;;;5056626;28;20025;-83
2024/01/01 01:54:36;;;;;;;3.40;1.63;;;8.70;99.90;;;;;;5056447;28;20082;-82
2024/01/01 01:57:03;;;;;;;7.82;2.15;;;8.70;99.90;;;;;;5038964;28;20451;-82
2024/01/01 01:59:29;;;;;;;6.80;2.17;;;8.70;99.90;;;;;;5057348;28;20029;-82
2024/01/01 02:01:56;;;;;;;4.55;2.15;;;8.70;99.90;;;;;;5038888;28;20392;-82
2024/01/01 02:04:23;;;;;;;5.75;2.10;;;8.70;99.90;;;;;;5039046;28;20028;-83
2024/01/01 02:06:49;;;;;;;4.07;2.08;;;8.70;99.90;;;;;;5022423;28;20123;-82
2024/01/01 02:09:15;;;;;;;4.10;1.92;;;8.60;99.90;;;;;;5022729;28;20108;-82
2024/01/01 02:11:40;;;;;;;4.90;1.98;;;8.70;99.90;;;;;;5039120;28;20065;-81
2024/01/01 02:14:14;;;;;;;6.03;2.25;;;8.60;99.90;;;;;;5022265;28;20469;-83
2024/01/01 02:16:40;;;;;;;5.88;2.25;;;8.60;99.90;;;;;;5056449;28;20472;-82
2024/01/01 02:19:26;;;;;;;6.60;2.38;;;8.60;99.90;;;;;;5038749;28;20076;-82
2024/01/01 02:21:53;;;;;;;5.50;2.05;;;8.60;99.90;;;;;;5056365;28;20033;-83
2024/01/01 02:24:20;;;;;;;4.20;1.80;;;8.60;99.90;;;;;;5056702;28;20029;-82
2024/01/01 02:26:47;;;;;;;4.93;2.00;;;8.60;99.90;;;;;;5055502;28;20025;-82
2024/01/01 02:29:13;;;;;;;5.13;1.90;;;8.60;99.90;;;;;;5021630;28;20032;-82
2024/01/01 02:31:39;;;;;;;4.88;1.70;;;8.60;99.90;;;;;;5021846;28;20031;-82
2024/01/01 02:34:05;;;;;;;7.22;1.75;;;8.70;99.90;;;;;;5021793;28;20021;-82
2024/01/01 02:36:37;;;;;;;7.68;1.88;;;8.60;99.90;;;;;;5055813;28;20044;-82
2024/01/01 02:39:06;;;;;;;7.38;1.90;;;8.60;99.90;;;;;;5038502;28;20045;-83
2024/01/01 02:41:34;;;;;;;3.97;1.85;;;8.70;99.90;;;;;;5022193;28;20025;-82
2024/01/01 02:44:00;;;;;;;4.97;1.60;;;8.70;99.90;;;;;;5056138;28;20091;-82
2024/01/01 02:46:25;;;;;;;5.05;1.80;;;8.70;99.90;;;;;;5038255;28;20029;-83
2024/01/01 02:48:51;;;;;;;6.30;2.05;;;8.70;99.90;;;;;;5055904;28;20429;-82
2024/01/01 02:51:16;;;;;;;5.30;1.80;;;8.70;99.90;;;;;;5056298;28;20473;-82
2024/01/01 02:53:42;;;;;;;5.00;1.90;;;8.70;99.90;;;;;;5021919;28;20457;-82
2024/01/01 02:56:25;;;;;;;6.30;2.00;;;8.70;99.90;;;;;;5039399;28;20033;-83
2024/01/01 02:58:51;;;;;;;10.15;2.40;;;8.70;99.90;;;;;;5077460;28;20009;-82
2024/01/01 03:01:18;;;;;;;6.47;2.33;;;8.60;99.90;;;;;;5062861;28;20013;-82
2024/01/01 03:03:43;;;;;;;5.55;1.92;;;8.60;99.90;;;;;;5046029;28;20005;-80
2024/01/01 03:06:09;;;;;;;5.10;1.60;;;8.60;99.90;;;;;;5095485;28;20127;-82
2024/01/01 03:08:37;;;;;;;7.72;2.20;;;8.60;99.90;;;;;;5054194;28;20025;-82
2024/01/01 03:11:06;;;;;;;8.20;2.15;;;8.60;99.90;;;;;;5040570;28;20039;-82
2024/01/01 03:13:32;;;;;;;6.90;1.80;;;8.50;99.90;;;;;;5037898;28;20029;-82
2024/01/01 03:15:59;;;;;;;8.02;2.00;;;8.50;99.90;;;;;;5022843;28;20028;-82
2024/01/01 03:18:24;;;;;;;6.20;1.52;;;8.50;99.90;;;;;;5071007;28;20094;-82
2024/01/01 03:20:50;;;;;;;8.73;2.42;;;8.40;99.90;;;;;;5055304;28;20431;-83
2024/01/01 03:23:16;;;;;;;11.23;2.00;;;8.40;99.90;;;;;;5055398;28;20104;-82
2024/01/01 03:25:41;;;;;;;11.88;2.00;;;8.50;99.90;;;;;;5055321;28;20100;-80
2024/01/01 03:28:07;;;;;;;5.75;1.63;;;8.50;99.90;;;;;;5037093;28;20086;-83
2024/01/01 03:30:33;;;;;;;8.23;2.45;;;8.50;99.90;;;;;;5053732;28;20025;-83
2024/01/01 03:32:59;;;;;;;7.90;2.40;;;8.50;99.90;;;;;;5055139;28;20082;-82
2024/01/01 03:35:24;;;;;;;6.93;2.03;;;8.50;99.90;;;;;;5036493;28;20507;-82
2024/01/01 03:37:50;;;;;;;10.30;2.17;;;8.40;99.90;;;;;;5036955;28;20495;-81
2024/01/01 03:40:15;;;;;;;13.02;2.55;;;8.40;99.90;;;;;;5053846;28;20086;-82
2024/01/01 03:42:41;;;;;;;5.90;1.77;;;8.40;99.90;;;;;;5036605;28;20087;-82
2024/01/01 03:45:08;;;;;;;6.10;1.90;;;8.40;99.90;;;;;;5055158;28;20108;-82
2024/01/01 03:47:34;;;;;;;7.35;2.15;;;8.50;99.90;;;;;;5021105;28;20041;-82
2024/01/01 03:49:59;;;;;;;6.78;2.10;;;8.40;99.90;;;;;;5020330;28;20025;-83
2024/01/01 03:52:25;;;;;;;8.50;1.95;;;8.50;99.90;;;;;;5036815;28;20052;-82
2024/01/01 03:54:51;;;;;;;12.00;2.58;;;8.50;99.90;;;;;;5020214;28;20028;-82
2024/01/01 03:57:17;;;;;;;11.63;2.22;;;8.40;99.90;;;;;;5053875;28;20479;-83
2024/01/01 03:59:43;;;;;;;8.00;2.10;;;8.40;99.90;;;;;;5037118;28;20033;-82
2024/01/01 04:02:10;;;;;;;8.93;2.78;;;8.40;99.90;;;;;;5036463;28;20068;-83
2024/01/01 04:04:36;;;;;;;9.25;2.45;;;8.40;99.90;;;;;;5054233;28;20024;-83
2024/01/01 04:07:02;;;;;;;7.35;2.17;;;8.40;99.90;;;;;;5019821;28;20075;-82
2024/01/01 04:09:28;;;;;;;9.55;2.83;;;8.40;99.90;;;;;;5053827;28;20032;-82
2024/01/01 04:11:54;;;;;;;6.85;1.48;;;8.40;99.90;;;;;;5035965;28;20029;-82
2024/01/01 04:14:19;;;;;;;7.03;1.90;;;8.40;99.90;;;;;;5036267;28;20488;-83
2024/01/01 04:16:45;;;;;;;9.90;2.15;;;8.40;99.90;;;;;;5054127;28;20473;-83
2024/01/01 04:19:10;;;;;;;8.82;2.03;;;8.40;99.90;;;;;;5032920;28;20061;-82
2024/01/01 04:21:40;;;;;;;9.38;2.00;;;8.40;99.90;;;;;;5016998;28;20491;-82
2024/01/01 04:24:11;;;;;;;7.95;2.17;;;8.40;99.90;;;;;;5033516;28;20033;-81
2024/01/01 04:26:38;;;;;;;5.80;1.90;;;8.40;99.90;;;;;;5045513;28;20040;-82
2024/01/01 04:29:03;;;;;;;10.82;2.10;;;8.50;99.90;;;;;;5058011;28;20014;-81
2024/01/01 04:31:29;;;;;;;10.85;2.60;;;8.50;99.90;;;;;;5057509;28;20010;-80
2024/01/01 04:33:58;;;;;;;8.85;1.80;;;8.50;99.90;;;;;;5032871;28;20026;-81
2024/01/01 04:36:24;;;;;;;8.38;2.25;;;8.50;99.90;;;;;;5035779;28;20048;-82
2024/01/01 04:38:55;;;;;;;8.43;2.20;;;8.50;99.90;;;;;;5050048;28;20056;-82
2024/01/01 04:41:20;;;;;;;7.30;2.00;;;8.50;99.90;;;;;;5018112;28;20033;-82
2024/01/01 04:43:46;;;;;;;8.77;1.90;;;8.50;99.90;;;;;;5032880;28;20690;-82
2024/01/01 04:46:11;;;;;;;7.13;2.10;;;8.50;99.90;;;;;;5016430;28;20481;-82
2024/01/01 04:48:37;;;;;;;7.50;2.00;;;8.50;99.90;;;;;;5034072;28;20041;-82
2024/01/01 04:51:03;;;;;;;6.95;2.17;;;8.50;99.90;;;;;;5034089;28;20029;-82
2024/01/01 04:53:29;;;;;;;7.55;2.30;;;8.50;99.90;;;;;;5033674;28;20037;-82
2024/01/01 04:55:55;;;;;;;8.18;2.05;;;8.50;99.90;;;;;;5016209;28;20026;-82
2024/01/01 04:58:20;;;;;;;6.88;1.90;;;8.60;99.90;;;;;;5033269;28;20029;-82
2024/01/01 05:00:46;;;;;;;10.05;2.13;;;8.60;99.90;;;;;;5033137;28;20112;-82
2024/01/01 05:03:13;;;;;;;7.75;2.25;;;8.50;99.90;;;;;;5033274;28;20045;-82
2024/01/01 05:05:38;;;;;;;7.95;1.75;;;8.50;99.90;;;;;;5034066;28;20531;-82
2024/01/01 05:08:04;;;;;;;9.20;1.98;;;8.50;99.90;;;;;;5016223;28;20053;-81
2024/01/01 05:10:30;;;;;;;9.40;1.80;;;8.60;99.90;;;;;;5016776;28;20061;-82
2024/01/01 05:12:55;;;;;;;5.82;1.77;;;8.60;99.90;;;;;;5016279;28;20037;-81
2024/01/01 05:15:21;;;;;;;6.20;1.98;;;8.50;99.90;;;;;;5032553;28;20030;-82
2024/01/01 05:17:47;;;;;;;8.00;1.80;;;8.50;99.90;;;;;;5015893;28;20037;-81
2024/01/01 05:20:13;;;;;;;8.02;1.75;;;8.60;99.90;;;;;;5032016;28;20053;-81
2024/01/01 05:22:40;;;;;;;10.80;2.80;;;8.50;99.90;;;;;;5032233;28;20029;-81
2024/01/01 05:25:06;;;;;;;8.13;2.10;;;8.50;99.90;;;;;;5032205;28;20065;-82
2024/01/01 05:27:34;;;;;;;6.65;2.20;;;8.50;99.90;;;;;;5032265;28;20485;-82
2024/01/01 05:30:04;;;;;;;10.85;2.20;;;8.50;99.90;;;;;;5049161;28;20034;-81
2024/01/01 05:32:31;;;;;;;9.00;2.15;;;8.50;99.90;;;;;;5032250;28;20022;-81
2024/01/01 05:34:56;;;;;;;8.90;2.20;;;8.50;99.90;;;;;;5032195;28;20053;-82
2024/01/01 05:37:22;;;;;;;9.80;2.08;;;8.50;99.90;;;;;;5015210;28;20064;-82
2024/01/01 05:39:48;;;;;;;6.50;1.73;;;8.40;99.90;;;;;;5015653;28;20469;-81
2024/01/01 05:42:13;;;;;;;6.70;1.85;;;8.40;99.90;;;;;;5015546;28;20075;-81
2024/01/01 05:44:39;;;;;;;11.63;2.05;;;8.30;99.90;;;;;;5033278;28;20359;-82
2024/01/01 05:47:05;;;;;;;6.88;1.92;;;8.40;99.90;;;;;;5034346;28;20489;-82
2024/01/01 05:49:30;;;;;;;5.65;1.88;;;8.40;99.90;;;;;;5018620;28;20052;-82
2024/01/01 05:51:56;;;;;;;9.60;2.83;;;8.40;99.90;;;;;;5038171;28;20033;-83
2024/01/01 05:54:22;;;;;;;8.65;2.05;;;8.40;99.90;;;;;;5042032;28;20053;-81
2024/01/01 05:56:47;;;;;;;7.68;2.67;;;8.30;99.90;;;;;;5039607;28;20113;-81
2024/01/01 05:59:13;;;;;;;11.05;2.08;;;8.40;99.90;;;;;;5058928;28;20033;-81
2024/01/01 06:01:40;;;;;;;7.53;2.25;;;8.40;99.90;;;;;;5042232;28;20005;-81
2024/01/01 06:04:05;;;;;;;10.02;2.42;;;8.40;99.90;;;;;;5046868;28;20026;-81
2024/01/01 06:06:31;;;;;;;8.50;2.28;;;8.40;99.90;;;;;;5035910;28;20033;-82
2024/01/01 06:08:57;;;;;;;7.95;1.65;;;8.40;99.90;;;;;;5035777;28;20033;-82
2024/01/01 06:11:22;;;;;;;6.28;1.73;;;8.40;99.90;;;;;;5036917;28;20262;-82
2024/01/01 06:13:48;;;;;;;7.43;1.83;;;8.40;99.90;;;;;;5035350;28;20029;-82
2024/01/01 06:16:14;;;;;;;8.85;2.10;;;8.40;99.90;;;;;;5052065;28;20041;-81
2024/01/01 06:18:39;;;;;;;5.35;1.65;;;8.40;99.90;;;;;;5021994;28;20400;-82
2024/01/01 06:21:05;;;;;;;7.13;1.83;;;8.40;99.90;;;;;;5038597;28;20103;-81
2024/01/01 06:23:31;;;;;;;6.82;1.90;;;8.40;99.90;;;;;;5022140;28;20469;-82
2024/01/01 06:25:57;;;;;;;6.82;2.20;;;8.30;99.90;;;;;;5055162;28;20528;-82
2024/01/01 06:28:22;;;;;;;7.95;2.10;;;8.30;99.90;;;;;;5021837;28;20358;-81
2024/01/01 06:30:48;;;;;;;5.85;1.67;;;8.30;99.90;;;;;;5056145;28;20036;-82
2024/01/01 06:33:14;;;;;;;8.82;2.80;;;8.30;99.90;;;;;;5038075;28;20021;-82
2024/01/01 06:35:40;;;;;;;10.05;1.67;;;8.30;99.90;;;;;;5038469;28;20036;-81
2024/01/01 06:38:08;;;;;;;7.60;1.70;;;8.30;99.90;;;;;;5071387;28;20389;-80
2024/01/01 06:40:34;;;;;;;7.78;2.20;;;8.30;99.90;;;;;;5071352;28;20025;-81
2024/01/01 06:42:59;;;;;;;7.75;2.00;;;8.30;99.90;;;;;;5020973;28;20071;-81
2024/01/01 06:45:25;;;;;;;8.52;1.85;;;8.30;99.90;;;;;;5070732;28;20338;-81
2024/01/01 06:47:51;;;;;;;8.23;1.95;;;8.20;99.90;;;;;;5021019;28;20059;-81
2024/01/01 06:50:17;;;;;;;8.18;1.73;;;8.20;99.90;;;;;;5021555;28;20033;-81
2024/01/01 06:52:42;;;;;;;9.65;2.10;;;8.20;99.90;;;;;;5021508;28;20496;-81
2024/01/01 06:55:11;;;;;;;7.88;2.00;;;8.20;99.90;;;;;;5054554;28;20025;-79
2024/01/01 06:57:38;;;;;;;4.53;1.50;;;8.20;99.90;;;;;;5054248;28;20045;-82
2024/01/01 07:00:04;;;;;;;9.27;1.90;;;8.20;99.90;;;;;;5021413;28;20021;-82
2024/01/01 07:02:30;;;;;;;7.60;1.90;;;8.20;99.90;;;;;;5054239;28;20039;-83
2024/01/01 07:04:56;;;;;;;6.30;1.70;;;8.20;99.90;;;;;;5037684;28;20116;-82
2024/01/01 07:07:21;;;;;;;5.63;1.98;;;8.20;99.90;;;;;;5070663;28;20032;-82
2024/01/01 07:09:47;;;;;;;7.88;1.98;;;8.20;99.90;;;;;;5020032;28;20036;-82
2024/01/01 07:12:23;;;;;;;6.95;1.63;;;8.10;99.90;;;;;;5054006;28;20033;-81
2024/01/01 07:14:49;;;;;;;9.68;2.10;;;8.20;99.90;;;;;;5021072;28;20358;-82
2024/01/01 07:17:16;;;;;;;6.20;2.03;;;8.20;99.90;;;;;;5055420;28;20029;-82
2024/01/01 07:19:42;;;;;;;6.32;1.70;;;8.20;99.90;;;;;;5038124;28;20049;-82
2024/01/01 07:22:09;;;;;;;6.65;2.05;;;8.10;99.90;;;;;;5027067;28;20091;-82
2024/01/01 07:24:34;;;;;;;8.02;2.05;;;8.10;99.90;;;;;;5061247;28;20060;-82
2024/01/01 07:27:00;;;;;;;9.55;2.20;;;8.20;99.90;;;;;;5043443;28;20021;-82
2024/01/01 07:29:27;;;;;;;6.38;1.80;;;8.20;99.90;;;;;;5095212;28;20029;-81
2024/01/01 07:31:53;;;;;;;9.55;2.03;;;8.10;99.90;;;;;;5082359;28;20033;-82
2024/01/01 07:34:19;;;;;;;7.63;2.33;;;8.10;99.90;;;;;;5039826;28;20477;-82
2024/01/01 07:36:46;;;;;;;7.38;2.10;;;8.20;99.90;;;;;;5037473;28;20085;-82
2024/01/01 07:39:12;;;;;;;8.18;1.80;;;8.10;99.90;;;;;;5070311;28;20021;-82
2024/01/01 07:41:38;;;;;;;6.38;2.22;;;8.20;99.90;;;;;;5055189;28;20028;-82
2024/01/01 07:44:04;;;;;;;5.93;1.63;;;8.20;99.90;;;;;;5020479;28;20120;-81
2024/01/01 07:46:30;;;;;;;7.63;1.98;;;8.20;99.90;;;;;;5020450;28;20437;-81
2024/01/01 07:48:56;;;;;;;5.60;1.83;;;8.20;99.90;;;;;;5020340;28;20372;-82
2024/01/01 07:51:22;;;;;;;8.75;2.05;;;8.20;99.90;;;;;;5020409;28;20461;-81
2024/01/01 07:53:50;;;;;;;5.65;1.85;;;8.20;99.90;;;;;;5019878;28;20025;-81
2024/01/01 07:56:15;;;;;;;8.38;2.00;;;8.20;99.90;;;;;;5054489;28;20432;-80
2024/01/01 07:58:41;;;;;;;6.93;2.15;;;8.20;99.90;;;;;;5054203;28;20029;-81
2024/01/01 08:01:07;;;;;;;7.97;2.25;;;8.20;99.90;;;;;;5036858;28;20083;-81
2024/01/01 08:03:33;;;;;;;7.10;2.05;;;8.20;99.90;;;;;;5020236;28;20029;-81
2024/01/01 08:05:58;;;;;;;9.00;1.90;;;8.30;99.90;;;;;;5036653;28;20416;-84
2024/01/01 08:08:24;;;;;;;8.05;1.70;;;8.30;99.90;;;;;;5020059;28;20036;-83
2024/01/01 08:10:50;;;;;;;7.18;1.85;;;8.30;99.90;;;;;;5036595;28;20025;-82
2024/01/01 08:13:15;;;;;;;8.27;2.25;;;8.30;99.90;;;;;;5054006;28;20040;-83
2024/01/01 08:15:41;;;;;;;6.95;1.95;;;8.30;99.90;;;;;;5019785;28;20028;-83
2024/01/01 08:18:07;;;;;;;8.73;2.53;;;8.30;99.90;;;;;;5036303;28;20124;-83
2024/01/01 08:20:33;;;;;;;6.80;1.90;;;8.30;99.90;;;;;;5032642;28;20096;-83
2024/01/01 08:22:58;;;;;;;6.45;2.55;;;8.40;99.90;;;;;;5016564;28;20048;-85
2024/01/01 08:25:24;;;;;;;9.57;2.83;;;8.40;99.90;;;;;;5016827;28;20029;-85
2024/01/01 08:27:49;;;;;;;9.60;2.33;;;8.40;99.90;;;;;;5016418;28;20042;-83
2024/01/01 08:30:15;;;;;;;8.65;2.55;;;8.40;99.90;;;;;;5017393;28;20033;-84
2024/01/01 08:32:41;;;;;;;8.65;2.38;;;8.30;99.90;;;;;;5032941;28;20063;-84
2024/01/01 08:35:07;;;;;;;5.30;2.10;;;8.30;99.90;;;;;;5049465;28;20454;-85
2024/01/01 08:37:33;;;;;;;7.07;2.00;;;8.40;99.90;;;;;;5016101;28;20052;-86
2024/01/01 08:39:58;;;;;;;7.97;2.10;;;8.40;99.90;;;;;;5032360;28;20133;-85
2024/01/01 08:42:25;;;;;;;6.80;2.28;;;8.40;99.90;;;;;;5032445;28;20061;-87
2024/01/01 08:44:51;;;;;;;7.13;1.92;;;8.40;99.90;;;;;;5016588;28;20033;-85
2024/01/01 08:47:17;;;;;;;7.43;1.98;;;8.40;99.90;;;;;;5016550;28;20033;-85
2024/01/01 08:49:43;;;;;;;7.07;1.95;;;8.50;99.90;;;;;;5018930;28;20171;-85
2024/01/01 08:52:09;;;;;;;8.60;2.33;;;8.50;99.90;;;;;;5056853;28;20025;-85
2024/01/01 08:54:34;;;;;;;8.15;2.10;;;8.50;99.90;;;;;;5056591;28;20018;-84
2024/01/01 08:57:00;;;;;;;7.97;2.20;;;8.50;99.90;;;;;;5054846;28;20048;-85
2024/01/01 08:59:26;;;;;;;7.60;1.90;;;8.50;99.90;;;;;;5031963;28;20065;-84
2024/01/01 09:01:52;;;;;;;8.80;2.25;;;8.50;99.90;;;;;;5032853;28;20462;-83
2024/01/01 09:04:17;;;;;;;7.75;2.28;;;8.50;99.90;;;;;;5032636;28;20029;-84
2024/01/01 09:06:46;;;;;;;11.18;2.53;;;8.50;99.90;;;;;;5033862;28;20434;-84
2024/01/01 09:09:12;;;;;;;8.80;2.22;;;8.50;99.90;;;;;;5033630;28;20087;-85
2024/01/01 09:11:38;;;;;;;10.25;2.80;;;8.50;99.90;;;;;;5032988;28;20021;-85
2024/01/01 09:14:03;;;;;;;6.00;2.00;;;8.50;99.90;;;;;;5033406;28;20462;-85
2024/01/01 09:16:33;;;;;;;6.43;2.33;;;8.40;99.90;;;;;;5031567;28;20021;-85
2024/01/01 09:19:01;;;;;;;8.20;2.17;;;8.40;99.90;;;;;;5038183;28;20053;-85
2024/01/01 09:21:27;;;;;;;9.10;2.28;;;8.40;99.90;;;;;;5019010;28;20102;-84
2024/01/01 09:24:00;;;;;;;5.60;2.20;;;8.40;99.90;;;;;;5035105;28;20017;-84
2024/01/01 09:26:30;;;;;;;9.02;2.25;;;8.30;99.90;;;;;;5068598;28;20068;-84
2024/01/01 09:28:59;;;;;;;11.45;2.75;;;8.30;99.90;;;;;;5035254;28;20088;-84
2024/01/01 09:31:34;;;;;;;8.45;3.20;;;8.30;99.90;;;;;;5035258;28;20025;-85
2024/01/01 09:34:00;;;;;;;5.68;2.35;;;8.30;99.90;;;;;;5021488;28;20116;-84
2024/01/01 09:36:47;;;;;;;9.57;2.75;;;8.40;99.90;;;;;;5022825;28;20120;-84
2024/01/01 09:39:12;;;;;;;8.88;2.42;;;8.40;99.90;;;;;;5072099;28;20096;-82
2024/01/01 09:41:38;;;;;;;7.28;2.15;;;8.40;99.90;;;;;;5038830;28;20029;-84
2024/01/01 09:44:04;;;;;;;11.57;2.35;;;8.40;99.90;;;;;;5022712;28;20056;-84
2024/01/01 09:46:33;;;;;;;8.93;2.40;;;8.40;99.90;;;;;;5072102;28;20043;-84
2024/01/01 09:49:02;;;;;;;8.68;2.42;;;8.50;99.90;;;;;;5022673;28;20025;-84
2024/01/01 09:51:28;;;;;;;8.05;2.35;;;8.50;99.90;;;;;;5022256;28;20022;-85
2024/01/01 09:53:54;;;;;;;7.13;1.67;;;8.40;99.90;;;;;;5022525;28;20040;-84
2024/01/01 09:56:21;;;;;;;5.75;2.20;;;8.40;99.90;;;;;;5056932;28;20025;-85
2024/01/01 09:58:47;;;;;;;7.53;1.95;;;8.40;99.90;;;;;;5022624;28;20025;-85
2024/01/01 10:01:23;;;;;;;4.28;1.58;;;8.40;99.90;;;;;;5038998;28;20032;-84
2024/01/01 10:04:03;;;;;;;6.30;1.95;;;8.50;99.90;;;;;;5071952;28;20033;-83
2024/01/01 10:06:34;;;;;;;8.73;2.08;;;8.50;99.90;;;;;;5038672;28;20029;-84
2024/01/01 10:09:07;;;;;;;4.35;1.67;;;8.50;99.90;;;;;;5056112;28;20377;-83
2024/01/01 10:11:46;;;;;;;5.18;1.60;;;8.50;99.90;;;;;;5021585;28;20122;-83
2024/01/01 10:14:12;;;;;;;4.68;1.67;;;8.60;99.90;;;;;;5038673;28;20163;-83
2024/01/01 10:16:48;;;;;;;;;;;;;;;;;;;;;
2024/01/01 10:19:14;;;;;;;6.18;1.85;;;8.70;99.90;;;;;;5052702;28;20089;-83
2024/01/01 10:21:41;;;;;;;4.35;1.73;;;8.70;99.90;;;;;;5079932;28;20032;-83
2024/01/01 10:24:19;;;;;;;6.18;1.60;;;8.70;99.90;;;;;;5046380;28;20009;-83
2024/01/01 10:26:46;;;;;;;10.20;1.85;;;8.70;99.90;;;;;;5061719;28;20083;-82
2024/01/01 10:29:13;;;;;;;4.78;1.58;;;8.70;99.90;;;;;;5039964;28;20037;-84
2024/01/01 10:31:48;;;;;;;6.22;2.13;;;8.70;99.90;;;;;;5071826;28;20420;-84
2024/01/01 10:34:18;;;;;;;6.80;1.80;;;8.60;99.90;;;;;;5038163;28;20033;-84
2024/01/01 10:36:44;;;;;;;4.47;1.70;;;8.70;99.90;;;;;;5071484;28;20048;-85
2024/01/01 10:39:12;;;;;;;6.15;2.00;;;8.70;99.90;;;;;;5055955;28;20083;-84
2024/01/01 10:41:39;;;;;;;8.63;2.58;;;8.70;99.90;;;;;;5037488;28;20052;-83
2024/01/01 10:44:09;;;;;;;5.28;1.90;;;8.60;99.90;;;;;;5021144;28;20033;-83
2024/01/01 10:46:46;;;;;;;7.00;2.20;;;8.60;99.90;;;;;;5070656;28;20032;-83
2024/01/01 10:49:23;;;;;;;9.95;2.38;;;8.60;99.90;;;;;;5021371;28;20120;-83
2024/01/01 10:52:08;;;;;;;6.28;1.60;;;8.60;99.90;;;;;;5037396;28;20372;-84
2024/01/01 10:54:50;;;;;;;7.45;1.58;;;8.60;99.90;;;;;;5037508;28;20373;-84
2024/01/01 10:57:22;;;;;;;7.53;1.70;;;8.50;99.90;;;;;;5038179;28;20036;-84
2024/01/01 11:00:19;;;;;;;3.35;1.30;;;8.60;99.90;;;;;;5038058;28;20021;-83
2024/01/01 11:02:45;;;;;;;5.25;1.63;;;8.60;99.90;;;;;;5070348;28;20025;-84
2024/01/01 11:05:12;;;;;;;5.32;1.83;;;8.80;99.90;;;;;;5037162;28;20510;-84
2024/01/01 11:07:53;;;;;;;7.57;2.20;;;8.80;99.90;;;;;;5020915;28;20032;-84
2024/01/01 11:10:42;;;;;;;4.85;1.77;;;8.90;99.90;;;;;;5055276;28;20507;-85
2024/01/01 11:13:13;;;;;;;4.70;1.80;;;8.90;99.90;;;;;;5070593;28;20136;-83
2024/01/01 11:15:44;;;;;;;7.97;2.33;;;9.00;99.90;;;;;;5020878;28;20504;-84
2024/01/01 11:18:19;;;;;;;6.30;1.77;;;9.00;99.90;;;;;;5036997;28;20129;-84
2024/01/01 11:20:52;;;;;;;6.28;1.83;;;8.90;99.90;;;;;;5020311;28;20111;-84
2024/01/01 11:23:44;;;;;;;4.93;1.80;;;8.90;99.90;;;;;;5054968;28;20020;-84
2024/01/01 11:26:34;;;;;;;5.82;1.83;;;8.90;99.90;;;;;;5034374;28;20041;-85
2024/01/01 11:29:02;;;;;;;3.28;1.38;;;8.90;99.90;;;;;;5036952;28;20036;-85
2024/01/01 11:31:29;;;;;;;8.32;1.90;;;9.00;99.90;;;;;;5036634;28;20036;-85
2024/01/01 11:34:04;;;;;;;4.90;1.40;;;8.90;99.90;;;;;;5036719;28;20064;-85
2024/01/01 11:36:29;;;;;;;5.32;1.45;;;9.00;99.90;;;;;;5036672;28;20044;-85
2024/01/01 11:38:56;;;;;;;4.97;1.10;;;9.00;99.90;;;;;;5020206;28;20444;-85
2024/01/01 11:41:27;;;;;;;7.22;1.63;;;9.00;99.90;;;;;;5054619;28;20021;-85
2024/01/01 11:43:53;;;;;;;5.88;1.58;;;9.00;99.90;;;;;;5020579;28;20060;-83
2024/01/01 11:46:28;;;;;;;4.32;1.50;;;8.90;99.90;;;;;;5023850;28;20029;-82
2024/01/01 11:49:01;;;;;;;4.97;1.67;;;8.80;99.90;;;;;;5059425;28;20009;-81
2024/01/01 11:51:30;;;;;;;4.20;1.30;;;8.90;99.90;;;;;;5061034;28;20037;-82
2024/01/01 11:54:06;;;;;;;7.55;1.83;;;8.90;99.90;;;;;;5061185;28;20052;-82
2024/01/01 11:56:33;;;;;;;6.35;1.48;;;8.90;99.90;;;;;;5052956;28;20048;-84
2024/01/01 11:58:59;;;;;;;5.60;1.42;;;8.90;99.90;;;;;;5055130;28;20029;-85
2024/01/01 12:01:28;;;;;;;5.32;1.27;;;8.90;99.90;;;;;;5020803;28;20123;-85
2024/01/01 12:04:00;;;;;;;3.95;1.35;;;8.90;99.90;;;;;;5036226;28;20029;-80
2024/01/01 12:06:25;;;;;;;5.28;1.42;;;8.90;99.90;;;;;;5053984;28;20021;-82
2024/01/01 12:09:05;;;;;;;5.63;1.45;;;8.90;99.90;;;;;;5036293;28;20036;-82
2024/01/01 12:11:31;;;;;;;6.90;1.70;;;8.90;99.90;;;;;;5036132;28;20044;-82
2024/01/01 12:13:57;;;;;;;7.15;1.70;;;8.80;99.90;;;;;;5036119;28;20060;-82
2024/01/01 12:16:23;;;;;;;6.40;1.50;;;8.90;99.90;;;;;;5053470;28;20025;-82
2024/01/01 12:19:00;;;;;;;4.57;1.58;;;8.80;99.90;;;;;;5035169;28;20086;-82
2024/01/01 12:21:37;;;;;;;4.22;1.85;;;8.80;99.90;;;;;;5035898;28;20020;-83
2024/01/01 12:24:06;;;;;;;3.95;1.50;;;8.80;99.90;;;;;;5019847;28;20051;-82
2024/01/01 12:26:35;;;;;;;3.65;1.23;;;8.70;99.90;;;;;;5069014;28;20029;-83
2024/01/01 12:29:08;;;;;;;5.47;1.40;;;8.70;99.90;;;;;;5069164;28;20121;-83
2024/01/01 12:31:37;;;;;;;6.60;1.65;;;8.70;99.90;;;;;;5035557;28;20106;-82
2024/01/01 12:34:04;;;;;;;10.63;1.80;;;8.80;99.90;;;;;;5019284;28;20052;-83
2024/01/01 12:36:29;;;;;;;9.23;1.83;;;8.80;99.90;;;;;;5035515;28;20498;-83
2024/01/01 12:38:55;;;;;;;7.35;1.80;;;8.80;99.90;;;;;;5068640;28;20116;-83
2024/01/01 12:41:21;;;;;;;6.63;2.05;;;8.80;99.90;;;;;;5018771;28;20033;-82
2024/01/01 12:43:59;;;;;;;7.60;2.10;;;8.80;99.90;;;;;;5053175;28;20115;-83
2024/01/01 12:46:33;;;;;;;9.20;2.28;;;8.90;99.90;;;;;;5053484;28;20052;-83
2024/01/01 12:51:46;;;;;;;10.05;2.78;;;9.10;99.90;;;;;;5024606;28;20029;-83
2024/01/01 12:54:14;;;;;;;8.93;2.38;;;9.10;99.90;;;;;;5053461;28;20028;-83
2024/01/01 12:56:59;;;;;;;10.77;2.53;;;9.20;99.90;;;;;;5019249;28;20048;-82
2024/01/01 12:59:32;;;;;;;10.68;2.72;;;9.20;99.90;;;;;;5053039;28;20032;-81